Time;durP1;ratioP1;P1;durP2;ratioP2;P2;SDS_P1;SDS_P2;PMS_P1;PMS_P2;Temp;Humidity;BMP_temperature;BMP_pressure;BME280_temperature;BME280_humidity;BME280_pressure;Samples;Min_cycle;Max_cycle;Signal;HPM_P1;HPM_P2
2023/03/14 00:01:08;;;;;;;24.13;5.32;;;9.90;99.90;;;;;;7361699;19;20023;-68
2023/03/14 00:03:35;;;;;;;22.40;4.88;;;9.90;99.90;;;;;;7369928;19;20695;-68
2023/03/14 00:06:03;;;;;;;27.02;6.78;;;10.00;99.90;;;;;;7366181;19;20125;-68
2023/03/14 00:08:29;;;;;;;23.30;5.47;;;10.00;99.90;;;;;;7370428;19;20052;-68
2023/03/14 00:10:57;;;;;;;23.42;6.18;;;10.10;99.90;;;;;;7370882;19;20026;-70
2023/03/14 00:13:24;;;;;;;21.10;5.10;;;10.10;99.90;;;;;;7370590;19;20592;-68
2023/03/14 00:15:51;;;;;;;19.45;5.20;;;10.20;99.90;;;;;;7374200;19;20035;-68
2023/03/14 00:18:19;;;;;;;24.45;5.65;;;10.20;99.90;;;;;;7374867;19;20022;-69
2023/03/14 00:20:46;;;;;;;26.02;6.38;;;10.20;99.90;;;;;;7374758;19;20655;-68
2023/03/14 00:23:12;;;;;;;21.27;4.90;;;10.30;99.90;;;;;;7374565;19;20085;-68
2023/03/14 00:25:39;;;;;;;20.88;5.50;;;10.30;99.90;;;;;;7373454;19;20030;-68
2023/03/14 00:28:05;;;;;;;24.25;5.80;;;10.20;99.90;;;;;;7372169;19;20906;-68
2023/03/14 00:30:32;;;;;;;18.40;4.40;;;10.20;99.90;;;;;;7371894;19;20615;-68
2023/03/14 00:32:58;;;;;;;26.38;5.68;;;10.20;99.90;;;;;;7372714;19;20022;-68
2023/03/14 00:35:25;;;;;;;23.23;5.68;;;10.30;99.90;;;;;;7372190;19;20026;-68
2023/03/14 00:37:53;;;;;;;22.10;5.22;;;10.30;99.90;;;;;;7374288;19;20018;-68
2023/03/14 00:40:20;;;;;;;23.08;5.30;;;10.40;99.90;;;;;;7369875;19;20504;-68
2023/03/14 00:42:52;;;;;;;24.58;5.45;;;10.30;99.90;;;;;;7375273;19;20018;-67
2023/03/14 00:45:19;;;;;;;21.17;5.43;;;10.30;99.90;;;;;;7367349;19;20018;-68
2023/03/14 00:47:45;;;;;;;19.27;4.88;;;10.30;99.90;;;;;;7371016;19;20396;-68
2023/03/14 00:50:13;;;;;;;22.45;5.18;;;10.30;99.90;;;;;;7372141;19;20033;-68
2023/03/14 00:52:41;;;;;;;18.67;5.18;;;10.30;99.90;;;;;;7367604;19;20019;-68
2023/03/14 00:55:09;;;;;;;24.27;5.60;;;10.30;99.90;;;;;;7369486;19;20028;-68
2023/03/14 00:57:35;;;;;;;19.35;4.82;;;10.30;99.90;;;;;;7371836;19;20086;-68
2023/03/14 01:00:05;;;;;;;23.83;5.80;;;10.40;99.90;;;;;;7369143;19;20118;-68
2023/03/14 01:02:32;;;;;;;21.60;6.00;;;10.40;99.90;;;;;;7370316;19;20014;-68
2023/03/14 01:04:59;;;;;;;21.83;7.15;;;10.40;99.90;;;;;;7369423;19;20107;-68
2023/03/14 01:07:37;;;;;;;20.30;6.22;;;10.40;99.90;;;;;;7368898;19;20674;-68
2023/03/14 01:10:06;;;;;;;21.20;6.63;;;10.40;99.90;;;;;;7368926;19;20056;-68
2023/03/14 01:12:38;;;;;;;19.73;6.88;;;10.50;99.90;;;;;;7367257;19;20018;-68
2023/03/14 01:15:05;;;;;;;18.67;6.53;;;10.50;99.90;;;;;;7369813;19;20023;-68
2023/03/14 01:17:37;;;;;;;16.98;5.72;;;10.40;99.90;;;;;;7366820;19;20383;-68
2023/03/14 01:20:05;;;;;;;17.05;5.97;;;10.40;99.90;;;;;;7369732;19;20090;-68
2023/03/14 01:22:32;;;;;;;21.55;5.70;;;10.40;99.90;;;;;;7368681;19;20089;-69
2023/03/14 01:24:58;;;;;;;17.52;6.88;;;10.40;99.90;;;;;;7366361;19;20052;-68
2023/03/14 01:27:24;;;;;;;15.10;5.72;;;10.40;99.90;;;;;;7368608;19;20090;-68
2023/03/14 01:29:54;;;;;;;16.50;5.28;;;10.40;99.90;;;;;;7367279;19;20015;-68
2023/03/14 01:32:25;;;;;;;19.08;5.93;;;10.50;99.90;;;;;;7363140;19;20018;-68
2023/03/14 01:34:53;;;;;;;16.25;6.13;;;10.50;99.90;;;;;;7359114;19;20069;-69
2023/03/14 01:37:20;;;;;;;15.90;5.03;;;10.50;99.90;;;;;;7365096;19;20051;-68
2023/03/14 01:39:47;;;;;;;19.48;5.57;;;10.60;99.90;;;;;;7368186;19;20029;-69
2023/03/14 01:42:16;;;;;;;14.93;4.72;;;10.60;99.90;;;;;;7365810;19;20026;-68
2023/03/14 01:44:59;;;;;;;14.70;4.03;;;10.60;99.90;;;;;;7369324;19;20027;-69
2023/03/14 01:47:29;;;;;;;19.80;4.80;;;10.60;99.90;;;;;;7367459;19;20026;-68
2023/03/14 01:49:59;;;;;;;15.95;5.53;;;10.50;99.90;;;;;;7367706;19;20029;-68
2023/03/14 01:52:33;;;;;;;18.95;4.90;;;10.50;99.90;;;;;;7366596;19;20584;-69
2023/03/14 01:55:06;;;;;;;21.25;6.03;;;10.40;99.90;;;;;;7361343;19;20927;-68
2023/03/14 01:57:39;;;;;;;15.13;4.65;;;10.40;99.90;;;;;;7364914;19;20110;-69
2023/03/14 02:00:17;;;;;;;16.95;4.93;;;10.40;99.90;;;;;;7370419;19;20035;-69
2023/03/14 02:02:50;;;;;;;;;;;10.30;99.90;;;;;;7368193;19;20082;-69
2023/03/14 02:05:39;;;;;;;17.08;4.03;;;10.30;99.90;;;;;;7367982;19;19937;-69
2023/03/14 02:08:14;;;;;;;19.80;5.03;;;10.30;99.90;;;;;;7365295;19;20610;-69
2023/03/14 02:10:52;;;;;;;17.60;5.13;;;10.30;99.90;;;;;;7368020;19;20478;-69
2023/03/14 02:13:37;;;;;;;22.80;4.72;;;10.40;99.90;;;;;;7365267;19;20015;-69
2023/03/14 02:16:22;;;;;;;16.73;5.32;;;10.30;99.90;;;;;;7367144;19;20018;-69
2023/03/14 02:20:04;;;;;;;16.15;5.25;;;10.30;99.90;;;;;;7363565;19;20018;-72
2023/03/14 02:22:37;;;;;;;19.37;5.60;;;10.20;99.90;;;;;;7367010;19;20513;-68
2023/03/14 02:25:34;;;;;;;18.77;6.13;;;10.30;99.90;;;;;;7366782;19;20628;-69
2023/03/14 02:28:01;;;;;;;20.92;5.90;;;10.40;99.90;;;;;;7368108;19;20021;-69
2023/03/14 02:30:30;;;;;;;17.65;5.38;;;10.40;99.90;;;;;;7367953;19;20061;-68
2023/03/14 02:33:05;;;;;;;15.88;5.30;;;10.40;99.90;;;;;;7361920;19;20022;-68
2023/03/14 02:35:40;;;;;;;19.83;6.00;;;10.50;99.90;;;;;;7361667;19;20035;-69
2023/03/14 02:38:15;;;;;;;19.88;6.53;;;10.40;99.90;;;;;;7365372;19;20019;-69
2023/03/14 02:40:44;;;;;;;18.63;5.72;;;10.30;99.90;;;;;;7366583;19;20624;-69
2023/03/14 02:43:12;;;;;;;20.25;5.85;;;10.30;99.90;;;;;;7371254;19;20022;-68
2023/03/14 02:45:50;;;;;;;19.13;5.90;;;10.30;99.90;;;;;;7360969;19;20454;-69
2023/03/14 02:48:35;;;;;;;16.85;6.15;;;10.20;99.90;;;;;;7366889;19;20018;-69
2023/03/14 02:51:02;;;;;;;13.75;5.28;;;10.10;99.90;;;;;;7373507;19;20053;-69
2023/03/14 02:53:37;;;;;;;22.95;5.82;;;10.00;99.90;;;;;;7369936;19;20053;-69
2023/03/14 02:56:09;;;;;;;20.92;5.95;;;10.00;99.90;;;;;;7369931;19;20042;-69
2023/03/14 02:58:37;;;;;;;15.95;5.15;;;9.90;99.90;;;;;;7371607;19;20052;-69
2023/03/14 03:01:18;;;;;;;16.75;4.85;;;9.90;99.90;;;;;;7371576;19;20037;-69
2023/03/14 03:03:45;;;;;;;15.18;4.63;;;9.90;99.90;;;;;;7373731;19;20051;-69
2023/03/14 03:06:12;;;;;;;13.15;4.40;;;9.90;99.90;;;;;;7372860;19;20019;-69
2023/03/14 03:08:45;;;;;;;7.85;4.15;;;9.90;99.90;;;;;;7374698;19;20696;-69
2023/03/14 03:11:12;;;;;;;13.32;4.03;;;9.80;99.90;;;;;;7375640;19;20022;-69
2023/03/14 03:13:38;;;;;;;12.27;4.28;;;9.80;99.90;;;;;;7368905;19;20019;-70
2023/03/14 03:16:06;;;;;;;8.35;4.30;;;9.80;99.90;;;;;;7375359;19;20038;-69
2023/03/14 03:18:34;;;;;;;15.93;4.78;;;9.70;99.90;;;;;;7371212;19;20064;-68
2023/03/14 03:21:02;;;;;;;12.82;4.20;;;9.70;99.90;;;;;;7376284;19;20022;-69
2023/03/14 03:23:28;;;;;;;9.93;4.45;;;9.60;99.90;;;;;;7374024;19;20074;-69
2023/03/14 03:25:54;;;;;;;13.07;4.55;;;9.60;99.90;;;;;;7374063;19;20078;-69
2023/03/14 03:28:21;;;;;;;16.05;4.28;;;9.60;99.90;;;;;;7371267;19;21335;-70
2023/03/14 03:30:49;;;;;;;13.90;5.10;;;9.50;99.90;;;;;;7367149;19;20037;-69
2023/03/14 03:33:15;;;;;;;12.15;4.82;;;9.50;99.90;;;;;;7374100;19;20023;-70
2023/03/14 03:35:46;;;;;;;11.68;5.32;;;9.50;99.90;;;;;;7368929;19;20014;-69
2023/03/14 03:38:15;;;;;;;15.75;5.70;;;9.50;99.90;;;;;;7372500;19;20089;-68
2023/03/14 03:40:43;;;;;;;18.33;6.20;;;9.50;99.90;;;;;;7367762;19;20018;-68
2023/03/14 03:43:10;;;;;;;14.13;5.53;;;9.50;99.90;;;;;;7369800;19;20493;-68
2023/03/14 03:45:40;;;;;;;16.63;5.97;;;9.50;99.90;;;;;;7365504;19;20011;-69
2023/03/14 03:48:06;;;;;;;18.02;6.05;;;9.60;99.90;;;;;;7365179;19;20355;-68
2023/03/14 03:50:33;;;;;;;16.40;6.07;;;9.60;99.90;;;;;;7363581;19;20052;-69
2023/03/14 03:52:59;;;;;;;17.13;5.97;;;9.50;99.90;;;;;;7366690;19;20062;-69
2023/03/14 03:55:27;;;;;;;13.20;6.20;;;9.50;99.90;;;;;;7368489;19;20026;-68
2023/03/14 03:57:54;;;;;;;17.00;7.07;;;9.40;99.90;;;;;;7375845;19;20019;-69
2023/03/14 04:00:20;;;;;;;18.42;5.65;;;9.40;99.90;;;;;;7371215;19;20018;-69
2023/03/14 04:02:48;;;;;;;16.55;5.55;;;9.40;99.90;;;;;;7375055;19;20596;-68
2023/03/14 04:05:17;;;;;;;12.40;5.38;;;9.40;99.90;;;;;;7371434;19;20382;-69
2023/03/14 04:07:53;;;;;;;14.55;5.40;;;9.50;99.90;;;;;;7373342;19;21821;-69
2023/03/14 04:10:24;;;;;;;14.52;5.40;;;9.40;99.90;;;;;;7371461;19;20039;-69
2023/03/14 04:13:09;;;;;;;14.77;4.80;;;9.40;99.90;;;;;;7370249;19;20051;-69
2023/03/14 04:15:38;;;;;;;16.05;5.72;;;9.40;99.90;;;;;;7370789;19;20367;-69
2023/03/14 04:18:11;;;;;;;15.63;4.13;;;9.40;99.90;;;;;;7372324;19;20105;-69
2023/03/14 04:20:37;;;;;;;14.80;5.65;;;9.40;99.90;;;;;;7370123;19;20046;-69
2023/03/14 04:23:04;;;;;;;16.10;4.82;;;9.40;99.90;;;;;;7374955;19;20018;-68
2023/03/14 04:25:35;;;;;;;22.20;5.80;;;9.40;99.90;;;;;;7367611;19;20030;-69
2023/03/14 04:28:04;;;;;;;14.43;5.47;;;9.40;99.90;;;;;;7369072;19;20030;-69
2023/03/14 04:30:31;;;;;;;19.92;5.22;;;9.40;99.90;;;;;;7368146;19;21549;-69
2023/03/14 04:33:18;;;;;;;18.35;5.32;;;9.40;99.90;;;;;;7370425;19;20468;-69
2023/03/14 04:35:54;;;;;;;14.38;5.47;;;9.20;99.90;;;;;;7366020;19;20023;-68
2023/03/14 04:38:20;;;;;;;16.73;5.72;;;9.10;99.90;;;;;;7366087;19;20365;-69
2023/03/14 04:40:48;;;;;;;17.35;6.00;;;9.10;99.90;;;;;;7368851;19;20086;-68
2023/03/14 04:43:16;;;;;;;14.55;6.45;;;9.00;99.90;;;;;;7371567;19;20018;-69
2023/03/14 04:45:49;;;;;;;14.57;7.60;;;9.00;99.90;;;;;;7370882;19;20103;-68
2023/03/14 04:48:15;;;;;;;17.08;7.35;;;8.90;99.90;;;;;;7369385;19;20022;-68
2023/03/14 04:50:43;;;;;;;12.18;7.07;;;8.90;99.90;;;;;;7372330;19;20097;-68
2023/03/14 04:53:09;;;;;;;18.25;8.13;;;8.90;99.90;;;;;;7369559;19;20638;-68
2023/03/14 04:55:38;;;;;;;16.90;7.68;;;8.90;99.90;;;;;;7369297;19;20022;-69
2023/03/14 04:58:04;;;;;;;17.52;7.43;;;8.90;99.90;;;;;;7370993;19;20023;-69
2023/03/14 05:00:31;;;;;;;16.02;6.97;;;8.90;99.90;;;;;;7368535;19;20026;-68
2023/03/14 05:02:57;;;;;;;12.77;6.65;;;8.90;99.90;;;;;;7372126;19;20820;-68
2023/03/14 05:05:33;;;;;;;12.68;7.15;;;8.90;99.90;;;;;;7370527;19;20087;-68
2023/03/14 05:08:02;;;;;;;14.57;6.90;;;8.90;99.90;;;;;;7372368;19;20374;-68
2023/03/14 05:10:56;;;;;;;10.38;6.55;;;8.90;99.90;;;;;;7370309;19;20603;-69
2023/03/14 05:13:55;;;;;;;13.20;6.63;;;9.00;99.90;;;;;;7367641;19;20381;-68
2023/03/14 05:16:26;;;;;;;;;;;9.00;99.90;;;;;;7370046;19;20022;-68
2023/03/14 05:19:11;;;;;;;14.23;6.95;;;9.00;99.90;;;;;;7370919;19;19946;-68
2023/03/14 05:21:58;;;;;;;13.20;6.60;;;9.10;99.90;;;;;;7367081;19;20011;-69
2023/03/14 05:24:37;;;;;;;14.88;6.93;;;9.10;99.90;;;;;;7365514;19;20078;-68
2023/03/14 05:27:13;;;;;;;12.02;6.25;;;9.10;99.90;;;;;;7363375;19;20082;-68
2023/03/14 05:29:59;;;;;;;17.20;6.40;;;9.10;99.90;;;;;;7365345;19;20458;-68
2023/03/14 05:32:46;;;;;;;19.05;7.22;;;9.10;99.90;;;;;;7365186;19;20022;-68
2023/03/14 05:35:19;;;;;;;11.43;6.35;;;9.10;99.90;;;;;;7364617;19;20608;-68
2023/03/14 05:38:12;;;;;;;17.13;7.30;;;9.10;99.90;;;;;;7365922;19;20014;-68
2023/03/14 05:41:05;;;;;;;16.17;6.63;;;9.00;99.90;;;;;;7368843;19;20022;-66
2023/03/14 05:43:51;;;;;;;17.00;7.43;;;9.00;99.90;;;;;;7370938;19;20036;-66
2023/03/14 05:46:31;;;;;;;17.08;7.18;;;9.00;99.90;;;;;;7365252;19;20161;-66
2023/03/14 05:49:18;;;;;;;16.00;6.75;;;8.90;99.90;;;;;;7368572;19;20090;-65
2023/03/14 05:52:27;;;;;;;16.48;6.93;;;8.90;99.90;;;;;;7365807;19;20022;-64
2023/03/14 05:55:22;;;;;;;14.30;7.35;;;8.80;99.90;;;;;;7360223;19;20039;-66
2023/03/14 05:58:23;;;;;;;18.13;7.45;;;8.80;99.90;;;;;;7370297;19;20018;-65
2023/03/14 06:01:26;;;;;;;21.83;7.53;;;8.70;99.90;;;;;;7364822;19;20014;-66
2023/03/14 06:04:35;;;;;;;20.02;7.85;;;8.70;99.90;;;;;;7365405;19;20023;-66
2023/03/14 06:07:01;;;;;;;21.10;8.02;;;8.70;99.90;;;;;;7369773;19;20026;-65
2023/03/14 06:09:28;;;;;;;22.63;8.15;;;8.70;99.90;;;;;;7368188;19;20042;-65
2023/03/14 06:11:57;;;;;;;17.83;7.63;;;8.70;99.90;;;;;;7372363;19;20022;-65
2023/03/14 06:14:24;;;;;;;21.25;8.18;;;8.70;99.90;;;;;;7365815;19;20025;-66
2023/03/14 06:16:52;;;;;;;23.80;8.20;;;8.70;99.90;;;;;;7365329;19;20957;-64
2023/03/14 06:19:23;;;;;;;14.82;8.90;;;8.70;99.90;;;;;;7367363;19;20025;-62
2023/03/14 06:21:49;;;;;;;18.92;8.07;;;8.70;99.90;;;;;;7369984;19;20011;-62
2023/03/14 06:24:16;;;;;;;23.33;8.52;;;8.60;99.90;;;;;;7369011;19;20034;-63
2023/03/14 06:26:55;;;;;;;17.85;7.93;;;8.70;99.90;;;;;;7376386;19;20438;-63
2023/03/14 06:29:22;;;;;;;21.23;7.95;;;8.70;99.90;;;;;;7371192;19;20030;-62
2023/03/14 06:31:49;;;;;;;16.73;7.03;;;8.70;99.90;;;;;;7375976;19;20022;-63
2023/03/14 06:34:17;;;;;;;10.52;6.15;;;8.70;99.90;;;;;;7372628;19;20023;-63
2023/03/14 06:36:48;;;;;;;12.40;6.32;;;8.70;99.90;;;;;;7376110;19;20094;-63
2023/03/14 06:39:20;;;;;;;15.27;5.00;;;8.70;99.90;;;;;;7377016;19;20030;-63
2023/03/14 06:41:52;;;;;;;13.93;5.30;;;8.80;99.90;;;;;;7376913;19;20090;-63
2023/03/14 06:44:19;;;;;;;15.13;5.60;;;8.80;99.90;;;;;;7377693;19;20114;-63
2023/03/14 06:46:46;;;;;;;14.32;5.70;;;8.70;99.90;;;;;;7377214;19;20066;-64
2023/03/14 06:49:13;;;;;;;12.50;5.82;;;8.80;99.90;;;;;;7377785;19;20010;-63
2023/03/14 06:51:39;;;;;;;9.95;6.10;;;8.80;99.90;;;;;;7377019;19;20019;-62
2023/03/14 06:54:09;;;;;;;13.05;5.75;;;8.80;99.90;;;;;;7376334;19;20014;-62
2023/03/14 06:56:36;;;;;;;13.18;5.78;;;8.80;99.90;;;;;;7373822;19;20025;-61
2023/03/14 06:59:08;;;;;;;10.95;5.70;;;8.80;99.90;;;;;;7370550;19;20017;-62
2023/03/14 07:01:36;;;;;;;12.10;5.82;;;8.80;99.90;;;;;;7373941;19;20056;-63
2023/03/14 07:04:09;;;;;;;8.98;4.97;;;8.70;99.90;;;;;;7377423;19;20014;-62
2023/03/14 07:06:39;;;;;;;13.98;5.68;;;8.80;99.90;;;;;;7377574;19;20457;-63
2023/03/14 07:09:06;;;;;;;10.23;5.80;;;8.70;99.90;;;;;;7373998;19;20044;-64
2023/03/14 07:11:34;;;;;;;15.00;6.43;;;8.80;99.90;;;;;;7374166;19;20386;-63
2023/03/14 07:14:02;;;;;;;15.68;6.55;;;8.70;99.90;;;;;;7376665;19;20082;-62
2023/03/14 07:16:31;;;;;;;12.25;5.47;;;8.70;99.90;;;;;;7374240;19;20022;-62
2023/03/14 07:18:57;;;;;;;8.48;4.53;;;8.80;99.90;;;;;;7376644;19;20014;-62
2023/03/14 07:21:27;;;;;;;13.00;3.63;;;8.70;99.90;;;;;;7371604;19;20032;-63
2023/03/14 07:23:54;;;;;;;6.55;2.40;;;8.60;99.90;;;;;;7381638;19;20011;-63
2023/03/14 07:26:21;;;;;;;5.20;1.85;;;8.50;99.90;;;;;;7376783;19;20018;-63
2023/03/14 07:28:52;;;;;;;4.13;2.22;;;8.40;99.90;;;;;;7376495;19;20795;-63
2023/03/14 07:31:20;;;;;;;6.55;2.70;;;8.30;99.90;;;;;;7372847;19;20955;-62
2023/03/14 07:33:47;;;;;;;5.72;1.70;;;8.30;99.90;;;;;;7371443;19;20039;-62
2023/03/14 07:36:13;;;;;;;10.65;6.32;;;7.70;99.90;;;;;;7374764;19;20014;-65
2023/03/14 07:38:43;;;;;;;6.70;1.77;;;7.40;99.90;;;;;;7375092;19;20035;-63
2023/03/14 07:41:20;;;;;;;7.18;1.35;;;7.10;99.90;;;;;;7373754;19;20054;-63
2023/03/14 07:44:06;;;;;;;6.25;2.50;;;7.00;99.90;;;;;;7376724;19;20014;-63
2023/03/14 07:46:33;;;;;;;8.10;1.50;;;6.90;99.90;;;;;;7373814;19;20490;-63
2023/03/14 07:49:00;;;;;;;4.50;1.15;;;6.70;99.90;;;;;;7374986;19;20371;-62
2023/03/14 07:51:27;;;;;;;9.68;2.95;;;6.40;99.90;;;;;;7373557;19;20497;-62
2023/03/14 07:53:53;;;;;;;9.00;3.40;;;6.10;99.90;;;;;;7375721;19;20014;-62
2023/03/14 07:56:20;;;;;;;10.10;3.75;;;6.00;99.90;;;;;;7376033;19;20044;-63
2023/03/14 07:58:46;;;;;;;7.00;2.03;;;5.90;99.90;;;;;;7372605;19;20053;-63
2023/03/14 08:01:12;;;;;;;10.90;1.98;;;5.80;99.90;;;;;;7373345;19;20765;-62
2023/03/14 08:03:39;;;;;;;7.53;1.90;;;5.70;99.90;;;;;;7367388;19;20526;-62
2023/03/14 08:06:06;;;;;;;8.20;1.40;;;5.50;99.90;;;;;;7376711;19;20041;-62
2023/03/14 08:08:33;;;;;;;5.55;2.08;;;5.40;99.90;;;;;;7372899;19;20026;-63
2023/03/14 08:11:05;;;;;;;4.45;2.33;;;5.40;99.90;;;;;;7375307;19;20048;-62
2023/03/14 08:13:32;;;;;;;8.93;4.32;;;5.20;99.90;;;;;;7374542;19;20022;-62
2023/03/14 08:15:58;;;;;;;6.75;1.70;;;5.10;99.90;;;;;;7372703;19;20038;-62
2023/03/14 08:18:24;;;;;;;2.58;0.98;;;5.00;99.90;;;;;;7371967;19;21676;-62
2023/03/14 08:20:52;;;;;;;11.98;5.35;;;5.10;99.90;;;;;;7374010;19;20044;-62
2023/03/14 08:23:18;;;;;;;8.95;2.60;;;5.00;99.90;;;;;;7373540;19;20025;-62
2023/03/14 08:25:44;;;;;;;10.35;5.50;;;5.10;99.90;;;;;;7377990;19;20077;-63
2023/03/14 08:28:13;;;;;;;7.25;2.90;;;5.00;99.90;;;;;;7374292;19;20019;-63
2023/03/14 08:30:39;;;;;;;6.15;1.65;;;5.10;99.90;;;;;;7374730;19;20078;-63
2023/03/14 08:33:11;;;;;;;5.70;2.45;;;5.10;99.90;;;;;;7371419;19;20026;-63
2023/03/14 08:35:38;;;;;;;10.90;4.03;;;5.10;99.90;;;;;;7363565;19;20026;-63
2023/03/14 08:38:04;;;;;;;8.98;4.53;;;5.20;99.90;;;;;;7373746;19;20018;-62
2023/03/14 08:40:31;;;;;;;9.80;3.92;;;5.20;99.90;;;;;;7371288;19;20435;-63
2023/03/14 08:42:57;;;;;;;14.68;4.90;;;5.20;99.90;;;;;;7375068;19;20103;-64
2023/03/14 08:45:24;;;;;;;2.47;0.80;;;5.20;99.90;;;;;;7371714;19;20014;-64
2023/03/14 08:47:51;;;;;;;5.63;2.83;;;5.20;99.90;;;;;;7371289;19;20432;-64
2023/03/14 08:50:18;;;;;;;2.92;1.40;;;5.20;99.90;;;;;;7372378;19;20039;-64
2023/03/14 08:52:45;;;;;;;6.68;1.17;;;5.20;99.90;;;;;;7370372;19;20445;-64
2023/03/14 08:55:11;;;;;;;11.27;6.72;;;5.30;99.90;;;;;;7373276;19;20112;-65
2023/03/14 08:57:42;;;;;;;6.47;2.55;;;5.40;99.90;;;;;;7366976;19;20027;-65
2023/03/14 09:00:12;;;;;;;9.52;3.55;;;5.40;99.90;;;;;;7372807;19;20075;-64
2023/03/14 09:02:39;;;;;;;6.00;1.45;;;5.40;99.90;;;;;;7368956;19;20426;-65
2023/03/14 09:05:06;;;;;;;8.65;3.45;;;5.40;99.90;;;;;;7374046;19;20040;-66
2023/03/14 09:07:32;;;;;;;5.40;1.92;;;5.40;99.90;;;;;;7369655;19;20829;-65
2023/03/14 09:09:59;;;;;;;10.10;2.60;;;5.40;99.90;;;;;;7371504;19;20757;-65
2023/03/14 09:12:25;;;;;;;10.20;3.28;;;5.50;99.90;;;;;;7368860;19;20826;-65
2023/03/14 09:14:52;;;;;;;5.70;1.05;;;5.60;99.90;;;;;;7373209;19;20021;-65
2023/03/14 09:17:18;;;;;;;10.25;3.72;;;5.60;99.90;;;;;;7369966;19;20018;-65
2023/03/14 09:19:44;;;;;;;11.40;3.00;;;5.70;99.90;;;;;;7372008;19;20082;-65
2023/03/14 09:22:11;;;;;;;13.98;6.07;;;5.80;99.90;;;;;;7373139;19;20018;-65
2023/03/14 09:24:37;;;;;;;13.25;4.93;;;6.00;99.90;;;;;;7370786;19;20018;-65
2023/03/14 09:27:03;;;;;;;7.50;2.13;;;5.90;99.90;;;;;;7373939;19;20033;-65
2023/03/14 09:29:31;;;;;;;10.52;2.60;;;6.10;99.90;;;;;;7372830;19;20019;-65
2023/03/14 09:31:59;;;;;;;17.45;6.78;;;6.10;99.90;;;;;;7369539;19;20422;-65
2023/03/14 09:34:26;;;;;;;6.97;2.40;;;6.20;99.90;;;;;;7363235;19;20018;-65
2023/03/14 09:36:53;;;;;;;11.38;3.03;;;6.40;99.90;;;;;;7366384;19;20023;-65
2023/03/14 09:39:19;;;;;;;10.45;1.92;;;6.70;99.90;;;;;;7369344;19;20010;-65
2023/03/14 09:41:58;;;;;;;11.02;4.15;;;6.90;99.90;;;;;;7370618;19;20021;-66
2023/03/14 09:44:28;;;;;;;17.67;3.50;;;7.10;99.90;;;;;;7364762;19;20026;-65
2023/03/14 09:47:00;;;;;;;12.95;3.63;;;7.00;99.90;;;;;;7365461;19;20039;-66
2023/03/14 09:49:32;;;;;;;15.07;2.83;;;7.00;99.90;;;;;;7364097;19;20082;-65
2023/03/14 09:52:30;;;;;;;19.95;7.03;;;6.80;99.90;;;;;;7370022;19;20035;-65
2023/03/14 09:55:04;;;;;;;13.23;3.10;;;6.80;99.90;;;;;;7365265;19;20089;-66
2023/03/14 09:57:37;;;;;;;18.10;3.28;;;6.90;99.90;;;;;;7370185;19;20026;-66
2023/03/14 10:00:17;;;;;;;20.92;4.97;;;7.20;99.90;;;;;;7374039;19;20038;-65
2023/03/14 10:02:50;;;;;;;14.52;5.25;;;7.30;99.90;;;;;;7373849;19;20078;-66
2023/03/14 10:05:21;;;;;;;19.10;4.60;;;7.00;99.90;;;;;;7376024;19;20047;-66
2023/03/14 10:07:47;;;;;;;23.63;7.40;;;7.10;99.90;;;;;;7380728;19;20057;-66
2023/03/14 10:10:21;;;;;;;20.30;6.55;;;7.00;99.90;;;;;;7376970;19;20024;-65
2023/03/14 10:12:55;;;;;;;25.80;9.43;;;7.00;99.90;;;;;;7378982;19;20763;-66
2023/03/14 10:15:40;;;;;;;16.65;3.85;;;6.90;99.90;;;;;;7375194;19;20090;-65
2023/03/14 10:18:15;;;;;;;22.63;4.80;;;6.80;99.90;;;;;;7378479;19;20030;-66
2023/03/14 10:20:47;;;;;;;24.80;6.03;;;6.60;99.90;;;;;;7375781;19;20090;-65
2023/03/14 10:23:16;;;;;;;20.98;3.33;;;6.70;99.90;;;;;;7376056;19;20132;-66
2023/03/14 10:25:46;;;;;;;19.38;3.33;;;6.70;99.90;;;;;;7379342;19;20015;-65
2023/03/14 10:28:30;;;;;;;24.30;4.93;;;6.60;99.90;;;;;;7374731;19;20010;-65
2023/03/14 10:30:58;;;;;;;17.15;3.80;;;6.60;99.90;;;;;;7372975;19;20019;-65
2023/03/14 10:33:30;;;;;;;17.20;4.43;;;6.50;99.90;;;;;;7366469;19;20019;-65
2023/03/14 10:36:06;;;;;;;14.02;3.47;;;6.40;99.90;;;;;;7377257;19;20010;-65
2023/03/14 10:38:36;;;;;;;17.27;4.72;;;6.10;99.90;;;;;;7375578;19;20019;-65
2023/03/14 10:41:24;;;;;;;21.73;4.85;;;6.00;99.90;;;;;;7378804;19;20029;-65
2023/03/14 10:43:57;;;;;;;23.13;8.23;;;6.10;99.90;;;;;;7378904;19;20010;-66
2023/03/14 10:46:26;;;;;;;15.02;3.33;;;6.10;99.90;;;;;;7377037;19;20274;-66
2023/03/14 10:49:36;;;;;;;24.38;4.65;;;6.10;99.90;;;;;;7374199;19;20098;-66
2023/03/14 10:52:12;;;;;;;19.48;5.18;;;6.10;99.90;;;;;;7376879;19;20022;-65
2023/03/14 10:54:38;;;;;;;22.88;3.75;;;6.00;99.90;;;;;;7371258;19;20519;-66
2023/03/14 10:57:06;;;;;;;21.25;4.50;;;6.20;99.90;;;;;;7368637;19;20018;-65
2023/03/14 10:59:37;;;;;;;19.65;5.55;;;6.30;99.90;;;;;;7373198;19;20010;-65
2023/03/14 11:02:15;;;;;;;18.88;4.20;;;6.70;99.90;;;;;;7375750;19;20022;-65
2023/03/14 11:05:09;;;;;;;18.08;4.25;;;7.00;99.90;;;;;;7374220;19;20466;-66
2023/03/14 11:07:43;;;;;;;15.57;2.90;;;7.30;99.90;;;;;;7374077;19;20033;-65
2023/03/14 11:10:23;;;;;;;12.88;3.25;;;7.10;99.90;;;;;;7373492;19;20800;-66
2023/03/14 11:13:08;;;;;;;17.85;5.32;;;6.80;99.90;;;;;;7373772;19;20037;-66
2023/03/14 11:15:48;;;;;;;15.90;3.20;;;7.00;99.90;;;;;;7367092;19;20054;-66
2023/03/14 11:18:23;;;;;;;15.30;3.13;;;7.00;99.90;;;;;;7377054;19;20077;-65
2023/03/14 11:21:12;;;;;;;14.45;2.92;;;7.40;99.90;;;;;;7372805;19;20026;-66
2023/03/14 11:23:39;;;;;;;15.82;4.05;;;7.80;99.90;;;;;;7373695;19;20039;-67
2023/03/14 11:27:03;;;;;;;12.07;3.03;;;7.90;99.90;;;;;;7376491;19;20038;-66
2023/03/14 11:29:48;;;;;;;9.77;3.40;;;7.50;99.90;;;;;;7369544;19;20025;-66
2023/03/14 11:32:27;;;;;;;19.60;4.57;;;7.30;99.90;;;;;;7371546;19;20022;-66
2023/03/14 11:34:54;;;;;;;8.45;2.67;;;6.90;99.90;;;;;;7371243;19;20015;-66
2023/03/14 11:37:36;;;;;;;11.50;2.45;;;7.10;99.90;;;;;;7373487;19;20014;-66
2023/03/14 11:40:05;;;;;;;17.05;5.78;;;7.60;99.90;;;;;;7373110;19;20094;-67
2023/03/14 11:42:32;;;;;;;12.73;3.03;;;8.30;99.90;;;;;;7372976;19;20018;-67
2023/03/14 11:45:02;;;;;;;15.57;5.40;;;8.60;99.90;;;;;;7375163;19;20041;-67
2023/03/14 11:47:40;;;;;;;10.63;2.20;;;8.70;99.90;;;;;;7371749;19;20470;-68
2023/03/14 11:50:20;;;;;;;10.00;2.47;;;9.10;99.90;;;;;;7376305;19;20026;-67
2023/03/14 11:53:21;;;;;;;11.90;2.67;;;9.80;99.90;;;;;;7372340;19;20411;-67
2023/03/14 11:55:53;;;;;;;11.30;2.75;;;9.00;99.90;;;;;;7373592;19;20014;-67
2023/03/14 11:58:37;;;;;;;10.73;2.22;;;8.40;99.90;;;;;;7373168;19;20018;-67
2023/03/14 12:01:11;;;;;;;14.73;4.50;;;8.00;99.90;;;;;;7376218;19;20026;-67
2023/03/14 12:03:56;;;;;;;10.63;2.30;;;8.30;99.90;;;;;;7372319;19;20019;-67
2023/03/14 12:06:40;;;;;;;11.98;2.10;;;8.80;99.90;;;;;;7375441;19;20031;-67
2023/03/14 12:09:08;;;;;;;9.05;2.70;;;9.50;99.90;;;;;;7377204;19;20018;-67
2023/03/14 12:11:43;;;;;;;10.68;2.00;;;10.10;99.90;;;;;;7373687;19;20018;-67
2023/03/14 12:14:29;;;;;;;9.60;2.13;;;10.40;99.90;;;;;;7369317;19;20045;-67
2023/03/14 12:17:22;;;;;;;6.15;1.40;;;10.00;99.90;;;;;;7374172;19;20026;-67
2023/03/14 12:20:05;;;;;;;8.05;1.73;;;10.80;99.90;;;;;;7372499;19;20022;-68
2023/03/14 12:22:43;;;;;;;6.07;1.58;;;11.40;99.90;;;;;;7372957;19;20026;-68
2023/03/14 12:25:18;;;;;;;10.48;2.42;;;11.40;99.90;;;;;;7377230;19;20502;-67
2023/03/14 12:27:57;;;;;;;9.32;2.63;;;11.80;99.90;;;;;;7378351;19;20033;-67
2023/03/14 12:30:39;;;;;;;6.88;1.65;;;11.10;99.90;;;;;;7374663;19;20033;-68
2023/03/14 12:33:17;;;;;;;5.40;1.27;;;10.20;99.90;;;;;;7376705;19;20046;-66
2023/03/14 12:35:49;;;;;;;6.22;1.23;;;10.40;99.90;;;;;;7371604;19;20045;-67
2023/03/14 12:38:34;;;;;;;;;;;10.70;93.20;;;;;;7372137;19;20316;-66
2023/03/14 12:41:22;;;;;;;5.88;1.58;;;11.30;99.90;;;;;;7375642;19;19933;-67
2023/03/14 12:43:48;;;;;;;7.35;1.52;;;11.40;99.90;;;;;;7371666;19;20098;-67
2023/03/14 12:46:18;;;;;;;8.65;1.38;;;12.20;91.10;;;;;;7371018;19;20035;-67
2023/03/14 12:49:08;;;;;;;7.18;1.40;;;11.30;67.70;;;;;;7371912;19;20011;-67
2023/03/14 12:51:43;;;;;;;9.05;2.20;;;11.40;68.70;;;;;;7374571;19;20582;-66
2023/03/14 12:54:24;;;;;;;8.75;1.70;;;10.90;67.20;;;;;;7375534;19;20113;-66
2023/03/14 12:57:05;;;;;;;6.13;1.58;;;10.60;64.40;;;;;;7369754;19;20026;-66
2023/03/14 12:59:33;;;;;;;8.15;1.65;;;10.60;65.20;;;;;;7371280;19;20018;-66
2023/03/14 13:02:07;;;;;;;9.85;2.17;;;11.60;64.00;;;;;;7371148;19;20050;-67
2023/03/14 13:04:42;;;;;;;13.82;2.70;;;12.70;61.30;;;;;;7372595;19;20018;-67
2023/03/14 13:07:54;;;;;;;8.30;1.98;;;13.10;60.10;;;;;;7371749;19;20033;-71
2023/03/14 13:10:30;;;;;;;4.63;1.30;;;13.10;56.80;;;;;;7372133;19;20014;-71
2023/03/14 13:13:21;;;;;;;8.82;2.03;;;13.60;55.10;;;;;;7375152;19;20461;-71
2023/03/14 13:15:53;;;;;;;8.48;1.83;;;14.10;53.70;;;;;;7371190;19;21007;-71
2023/03/14 13:18:37;;;;;;;6.75;1.42;;;14.00;54.50;;;;;;7376715;19;20062;-71